sensor_id;sensor_type;location;lat;lon;timestamp;P1;durP1;ratioP1;P2;durP2;ratioP2
69244;SDS011;56357;52.304;4.870;2023-03-23T00:01:58;5.32;;;1.00;;
69244;SDS011;56357;52.304;4.870;2023-03-23T00:04:24;6.53;;;1.27;;
69244;SDS011;56357;52.304;4.870;2023-03-23T00:06:52;6.80;;;1.17;;
69244;SDS011;56357;52.304;4.870;2023-03-23T00:09:18;6.45;;;1.30;;
69244;SDS011;56357;52.304;4.870;2023-03-23T00:11:49;5.72;;;1.10;;
69244;SDS011;56357;52.304;4.870;2023-03-23T00:14:16;7.18;;;1.15;;
69244;SDS011;56357;52.304;4.870;2023-03-23T00:16:47;6.20;;;1.15;;
69244;SDS011;56357;52.304;4.870;2023-03-23T00:19:15;5.20;;;0.93;;
69244;SDS011;56357;52.304;4.870;2023-03-23T00:21:44;7.00;;;1.10;;
69244;SDS011;56357;52.304;4.870;2023-03-23T00:24:12;4.47;;;0.80;;
69244;SDS011;56357;52.304;4.870;2023-03-23T00:26:43;5.28;;;0.88;;
69244;SDS011;56357;52.304;4.870;2023-03-23T00:29:12;5.15;;;0.88;;
69244;SDS011;56357;52.304;4.870;2023-03-23T00:31:41;5.60;;;0.83;;
69244;SDS011;56357;52.304;4.870;2023-03-23T00:34:12;5.65;;;0.88;;
69244;SDS011;56357;52.304;4.870;2023-03-23T00:36:44;5.25;;;0.90;;
69244;SDS011;56357;52.304;4.870;2023-03-23T00:39:15;4.00;;;1.00;;
69244;SDS011;56357;52.304;4.870;2023-03-23T00:41:42;6.75;;;1.20;;
69244;SDS011;56357;52.304;4.870;2023-03-23T00:44:10;5.67;;;0.90;;
69244;SDS011;56357;52.304;4.870;2023-03-23T00:46:41;5.60;;;0.90;;
69244;SDS011;56357;52.304;4.870;2023-03-23T00:49:12;4.72;;;0.80;;
69244;SDS011;56357;52.304;4.870;2023-03-23T00:51:40;7.18;;;1.45;;
69244;SDS011;56357;52.304;4.870;2023-03-23T00:54:08;5.82;;;0.98;;
69244;SDS011;56357;52.304;4.870;2023-03-23T00:56:34;6.43;;;0.70;;
69244;SDS011;56357;52.304;4.870;2023-03-23T00:59:02;7.55;;;1.30;;
69244;SDS011;56357;52.304;4.870;2023-03-23T01:01:29;4.68;;;1.08;;
69244;SDS011;56357;52.304;4.870;2023-03-23T01:03:57;3.90;;;0.70;;
69244;SDS011;56357;52.304;4.870;2023-03-23T01:06:26;4.18;;;0.68;;
69244;SDS011;56357;52.304;4.870;2023-03-23T01:08:55;5.10;;;1.10;;
69244;SDS011;56357;52.304;4.870;2023-03-23T01:11:22;4.28;;;0.60;;
69244;SDS011;56357;52.304;4.870;2023-03-23T01:13:49;5.68;;;1.10;;
69244;SDS011;56357;52.304;4.870;2023-03-23T01:16:16;6.18;;;1.15;;
69244;SDS011;56357;52.304;4.870;2023-03-23T01:18:42;4.57;;;0.90;;
69244;SDS011;56357;52.304;4.870;2023-03-23T01:21:10;3.73;;;0.80;;
69244;SDS011;56357;52.304;4.870;2023-03-23T01:23:39;4.07;;;0.77;;
69244;SDS011;56357;52.304;4.870;2023-03-23T01:26:07;4.47;;;0.50;;
69244;SDS011;56357;52.304;4.870;2023-03-23T01:28:38;4.45;;;0.60;;
69244;SDS011;56357;52.304;4.870;2023-03-23T01:31:15;5.05;;;1.08;;
69244;SDS011;56357;52.304;4.870;2023-03-23T01:33:43;4.27;;;0.80;;
69244;SDS011;56357;52.304;4.870;2023-03-23T01:36:12;3.95;;;0.60;;
69244;SDS011;56357;52.304;4.870;2023-03-23T01:38:41;6.15;;;1.08;;
69244;SDS011;56357;52.304;4.870;2023-03-23T01:41:08;4.72;;;0.82;;
69244;SDS011;56357;52.304;4.870;2023-03-23T01:43:36;5.75;;;1.08;;
69244;SDS011;56357;52.304;4.870;2023-03-23T01:46:19;6.70;;;0.90;;
69244;SDS011;56357;52.304;4.870;2023-03-23T01:48:47;5.32;;;0.70;;
69244;SDS011;56357;52.304;4.870;2023-03-23T01:51:17;3.15;;;0.77;;
69244;SDS011;56357;52.304;4.870;2023-03-23T01:53:46;3.58;;;0.60;;
69244;SDS011;56357;52.304;4.870;2023-03-23T01:56:24;3.42;;;0.90;;
69244;SDS011;56357;52.304;4.870;2023-03-23T01:58:55;4.10;;;0.73;;
69244;SDS011;56357;52.304;4.870;2023-03-23T02:01:22;4.47;;;0.95;;
69244;SDS011;56357;52.304;4.870;2023-03-23T02:03:50;4.38;;;0.80;;
69244;SDS011;56357;52.304;4.870;2023-03-23T02:06:18;4.15;;;0.70;;
69244;SDS011;56357;52.304;4.870;2023-03-23T02:08:45;5.50;;;0.77;;
69244;SDS011;56357;52.304;4.870;2023-03-23T02:11:16;3.30;;;0.60;;
69244;SDS011;56357;52.304;4.870;2023-03-23T02:13:47;5.97;;;0.82;;
69244;SDS011;56357;52.304;4.870;2023-03-23T02:29:49;3.85;;;0.80;;
69244;SDS011;56357;52.304;4.870;2023-03-23T02:32:22;4.88;;;0.70;;
69244;SDS011;56357;52.304;4.870;2023-03-23T02:34:53;3.92;;;0.80;;
69244;SDS011;56357;52.304;4.870;2023-03-23T02:40:05;3.47;;;0.70;;
69244;SDS011;56357;52.304;4.870;2023-03-23T02:42:42;2.97;;;0.63;;
69244;SDS011;56357;52.304;4.870;2023-03-23T02:45:12;3.83;;;0.77;;
69244;SDS011;56357;52.304;4.870;2023-03-23T02:47:42;4.28;;;0.70;;
69244;SDS011;56357;52.304;4.870;2023-03-23T02:50:13;4.07;;;0.47;;
69244;SDS011;56357;52.304;4.870;2023-03-23T02:52:42;3.60;;;0.70;;
69244;SDS011;56357;52.304;4.870;2023-03-23T02:55:11;5.15;;;0.80;;
69244;SDS011;56357;52.304;4.870;2023-03-23T02:57:38;4.47;;;0.75;;
69244;SDS011;56357;52.304;4.870;2023-03-23T03:00:06;3.67;;;0.80;;
69244;SDS011;56357;52.304;4.870;2023-03-23T03:02:39;4.43;;;0.77;;
69244;SDS011;56357;52.304;4.870;2023-03-23T03:08:22;4.65;;;0.70;;
69244;SDS011;56357;52.304;4.870;2023-03-23T03:13:32;3.38;;;0.77;;
69244;SDS011;56357;52.304;4.870;2023-03-23T03:16:03;3.37;;;0.50;;
69244;SDS011;56357;52.304;4.870;2023-03-23T03:21:15;3.42;;;0.70;;
69244;SDS011;56357;52.304;4.870;2023-03-23T03:23:45;2.92;;;0.60;;
69244;SDS011;56357;52.304;4.870;2023-03-23T03:26:14;3.40;;;0.57;;
69244;SDS011;56357;52.304;4.870;2023-03-23T03:28:43;3.50;;;0.60;;
69244;SDS011;56357;52.304;4.870;2023-03-23T03:31:13;4.15;;;0.50;;
69244;SDS011;56357;52.304;4.870;2023-03-23T03:33:43;4.55;;;0.60;;
69244;SDS011;56357;52.304;4.870;2023-03-23T03:36:14;4.35;;;0.80;;
69244;SDS011;56357;52.304;4.870;2023-03-23T03:38:44;3.40;;;0.60;;
69244;SDS011;56357;52.304;4.870;2023-03-23T03:41:12;4.30;;;0.80;;
69244;SDS011;56357;52.304;4.870;2023-03-23T03:43:38;3.70;;;0.60;;
69244;SDS011;56357;52.304;4.870;2023-03-23T03:46:05;4.00;;;0.70;;
69244;SDS011;56357;52.304;4.870;2023-03-23T03:48:31;3.45;;;0.50;;
69244;SDS011;56357;52.304;4.870;2023-03-23T03:50:58;3.67;;;0.73;;
69244;SDS011;56357;52.304;4.870;2023-03-23T03:53:25;4.97;;;0.60;;
69244;SDS011;56357;52.304;4.870;2023-03-23T03:55:52;5.00;;;0.70;;
69244;SDS011;56357;52.304;4.870;2023-03-23T03:58:20;2.95;;;0.55;;
69244;SDS011;56357;52.304;4.870;2023-03-23T04:00:48;3.70;;;0.52;;
69244;SDS011;56357;52.304;4.870;2023-03-23T04:03:15;3.72;;;0.70;;
69244;SDS011;56357;52.304;4.870;2023-03-23T04:05:42;3.33;;;0.40;;
69244;SDS011;56357;52.304;4.870;2023-03-23T04:08:10;4.30;;;0.77;;
69244;SDS011;56357;52.304;4.870;2023-03-23T04:10:37;3.80;;;0.80;;
69244;SDS011;56357;52.304;4.870;2023-03-23T04:13:04;3.80;;;0.70;;
69244;SDS011;56357;52.304;4.870;2023-03-23T04:15:31;3.60;;;0.38;;
69244;SDS011;56357;52.304;4.870;2023-03-23T04:17:57;2.73;;;0.40;;
69244;SDS011;56357;52.304;4.870;2023-03-23T04:20:24;3.45;;;0.55;;
69244;SDS011;56357;52.304;4.870;2023-03-23T04:22:51;4.03;;;0.70;;
69244;SDS011;56357;52.304;4.870;2023-03-23T04:25:20;3.92;;;0.52;;
69244;SDS011;56357;52.304;4.870;2023-03-23T04:27:47;2.78;;;0.60;;
69244;SDS011;56357;52.304;4.870;2023-03-23T04:30:18;3.67;;;0.60;;
69244;SDS011;56357;52.304;4.870;2023-03-23T04:32:50;3.58;;;0.70;;
69244;SDS011;56357;52.304;4.870;2023-03-23T04:35:20;3.45;;;0.70;;
69244;SDS011;56357;52.304;4.870;2023-03-23T04:37:49;4.55;;;0.98;;
69244;SDS011;56357;52.304;4.870;2023-03-23T04:40:16;3.63;;;0.88;;
69244;SDS011;56357;52.304;4.870;2023-03-23T04:42:43;3.97;;;0.50;;
69244;SDS011;56357;52.304;4.870;2023-03-23T04:45:12;3.08;;;0.50;;
69244;SDS011;56357;52.304;4.870;2023-03-23T04:47:41;4.20;;;0.50;;
69244;SDS011;56357;52.304;4.870;2023-03-23T04:50:18;3.60;;;0.90;;
69244;SDS011;56357;52.304;4.870;2023-03-23T04:52:46;4.35;;;0.50;;
69244;SDS011;56357;52.304;4.870;2023-03-23T04:55:13;3.53;;;0.43;;
69244;SDS011;56357;52.304;4.870;2023-03-23T04:57:40;3.33;;;0.52;;
69244;SDS011;56357;52.304;4.870;2023-03-23T05:00:06;3.63;;;0.73;;
69244;SDS011;56357;52.304;4.870;2023-03-23T05:02:36;5.05;;;0.80;;
69244;SDS011;56357;52.304;4.870;2023-03-23T05:05:04;3.80;;;0.50;;
69244;SDS011;56357;52.304;4.870;2023-03-23T05:07:31;2.40;;;0.40;;
69244;SDS011;56357;52.304;4.870;2023-03-23T05:09:58;4.22;;;0.70;;
69244;SDS011;56357;52.304;4.870;2023-03-23T05:12:24;3.05;;;0.57;;
69244;SDS011;56357;52.304;4.870;2023-03-23T05:14:51;4.60;;;0.68;;
69244;SDS011;56357;52.304;4.870;2023-03-23T05:17:18;3.80;;;0.70;;
69244;SDS011;56357;52.304;4.870;2023-03-23T05:19:44;3.77;;;0.40;;
69244;SDS011;56357;52.304;4.870;2023-03-23T05:22:12;5.15;;;0.60;;
69244;SDS011;56357;52.304;4.870;2023-03-23T05:24:40;7.63;;;0.90;;
69244;SDS011;56357;52.304;4.870;2023-03-23T05:27:07;3.15;;;0.40;;
69244;SDS011;56357;52.304;4.870;2023-03-23T05:29:37;3.63;;;0.50;;
69244;SDS011;56357;52.304;4.870;2023-03-23T05:32:06;3.80;;;0.70;;
69244;SDS011;56357;52.304;4.870;2023-03-23T05:34:34;3.95;;;0.60;;
69244;SDS011;56357;52.304;4.870;2023-03-23T05:37:01;3.95;;;0.60;;
69244;SDS011;56357;52.304;4.870;2023-03-23T05:39:29;5.00;;;0.90;;
69244;SDS011;56357;52.304;4.870;2023-03-23T05:41:57;5.93;;;0.50;;
69244;SDS011;56357;52.304;4.870;2023-03-23T05:44:24;4.77;;;0.83;;
69244;SDS011;56357;52.304;4.870;2023-03-23T05:46:51;5.07;;;0.60;;
69244;SDS011;56357;52.304;4.870;2023-03-23T05:49:18;5.03;;;0.68;;
69244;SDS011;56357;52.304;4.870;2023-03-23T05:51:45;5.80;;;0.75;;
69244;SDS011;56357;52.304;4.870;2023-03-23T05:54:12;4.75;;;0.70;;
69244;SDS011;56357;52.304;4.870;2023-03-23T05:56:39;4.27;;;0.77;;
69244;SDS011;56357;52.304;4.870;2023-03-23T05:59:06;5.45;;;0.90;;
69244;SDS011;56357;52.304;4.870;2023-03-23T06:01:33;3.20;;;0.50;;
69244;SDS011;56357;52.304;4.870;2023-03-23T06:04:00;3.47;;;0.50;;
69244;SDS011;56357;52.304;4.870;2023-03-23T06:06:26;3.88;;;0.90;;
69244;SDS011;56357;52.304;4.870;2023-03-23T06:08:54;4.67;;;0.47;;
69244;SDS011;56357;52.304;4.870;2023-03-23T06:11:22;4.85;;;0.65;;
69244;SDS011;56357;52.304;4.870;2023-03-23T06:13:49;5.90;;;0.98;;
69244;SDS011;56357;52.304;4.870;2023-03-23T06:16:16;4.10;;;0.70;;
69244;SDS011;56357;52.304;4.870;2023-03-23T06:18:43;5.63;;;0.82;;
69244;SDS011;56357;52.304;4.870;2023-03-23T06:21:09;11.07;;;1.30;;
69244;SDS011;56357;52.304;4.870;2023-03-23T06:23:37;8.73;;;1.00;;
69244;SDS011;56357;52.304;4.870;2023-03-23T06:26:05;8.90;;;1.45;;
69244;SDS011;56357;52.304;4.870;2023-03-23T06:28:33;9.20;;;1.75;;
69244;SDS011;56357;52.304;4.870;2023-03-23T06:31:01;7.43;;;0.80;;
69244;SDS011;56357;52.304;4.870;2023-03-23T06:33:29;7.17;;;0.90;;
69244;SDS011;56357;52.304;4.870;2023-03-23T06:35:56;10.68;;;1.02;;
69244;SDS011;56357;52.304;4.870;2023-03-23T06:38:23;7.57;;;1.35;;
69244;SDS011;56357;52.304;4.870;2023-03-23T06:40:51;8.48;;;0.90;;
69244;SDS011;56357;52.304;4.870;2023-03-23T06:43:19;10.75;;;0.93;;
69244;SDS011;56357;52.304;4.870;2023-03-23T06:45:45;7.37;;;0.80;;
69244;SDS011;56357;52.304;4.870;2023-03-23T06:48:12;7.30;;;0.88;;
69244;SDS011;56357;52.304;4.870;2023-03-23T06:50:38;7.47;;;0.88;;
69244;SDS011;56357;52.304;4.870;2023-03-23T06:53:08;8.98;;;0.90;;
69244;SDS011;56357;52.304;4.870;2023-03-23T06:55:35;10.48;;;1.63;;
69244;SDS011;56357;52.304;4.870;2023-03-23T06:58:03;10.27;;;1.10;;
69244;SDS011;56357;52.304;4.870;2023-03-23T07:00:30;11.10;;;1.13;;
69244;SDS011;56357;52.304;4.870;2023-03-23T07:02:57;9.20;;;1.00;;
69244;SDS011;56357;52.304;4.870;2023-03-23T07:05:23;10.73;;;1.25;;
69244;SDS011;56357;52.304;4.870;2023-03-23T07:07:51;12.27;;;1.30;;
69244;SDS011;56357;52.304;4.870;2023-03-23T07:10:17;13.53;;;1.23;;
69244;SDS011;56357;52.304;4.870;2023-03-23T07:12:44;7.25;;;0.90;;
69244;SDS011;56357;52.304;4.870;2023-03-23T07:15:10;10.82;;;1.45;;
69244;SDS011;56357;52.304;4.870;2023-03-23T07:17:37;10.25;;;1.20;;
69244;SDS011;56357;52.304;4.870;2023-03-23T07:20:05;10.07;;;1.30;;
69244;SDS011;56357;52.304;4.870;2023-03-23T07:22:32;9.70;;;1.07;;
69244;SDS011;56357;52.304;4.870;2023-03-23T07:24:59;8.98;;;1.27;;
69244;SDS011;56357;52.304;4.870;2023-03-23T07:27:25;11.52;;;1.23;;
69244;SDS011;56357;52.304;4.870;2023-03-23T07:29:52;10.45;;;1.20;;
69244;SDS011;56357;52.304;4.870;2023-03-23T07:32:19;8.85;;;1.50;;
69244;SDS011;56357;52.304;4.870;2023-03-23T07:34:45;8.70;;;1.10;;
69244;SDS011;56357;52.304;4.870;2023-03-23T07:37:12;12.55;;;1.02;;
69244;SDS011;56357;52.304;4.870;2023-03-23T07:39:38;9.30;;;1.25;;
69244;SDS011;56357;52.304;4.870;2023-03-23T07:42:05;11.13;;;1.30;;
69244;SDS011;56357;52.304;4.870;2023-03-23T07:44:32;11.57;;;1.42;;
69244;SDS011;56357;52.304;4.870;2023-03-23T07:46:59;10.43;;;0.93;;
69244;SDS011;56357;52.304;4.870;2023-03-23T07:49:25;8.63;;;1.05;;
69244;SDS011;56357;52.304;4.870;2023-03-23T07:51:52;9.38;;;1.63;;
69244;SDS011;56357;52.304;4.870;2023-03-23T07:54:19;10.02;;;1.55;;
69244;SDS011;56357;52.304;4.870;2023-03-23T07:56:45;11.27;;;1.45;;
69244;SDS011;56357;52.304;4.870;2023-03-23T07:59:12;7.07;;;1.00;;
69244;SDS011;56357;52.304;4.870;2023-03-23T08:01:38;7.30;;;0.88;;
69244;SDS011;56357;52.304;4.870;2023-03-23T08:04:05;11.10;;;1.42;;
69244;SDS011;56357;52.304;4.870;2023-03-23T08:06:32;13.48;;;1.25;;
69244;SDS011;56357;52.304;4.870;2023-03-23T08:09:00;9.05;;;1.30;;
69244;SDS011;56357;52.304;4.870;2023-03-23T08:11:28;11.17;;;1.40;;
69244;SDS011;56357;52.304;4.870;2023-03-23T08:13:54;8.57;;;1.27;;
69244;SDS011;56357;52.304;4.870;2023-03-23T08:16:21;8.43;;;1.42;;
69244;SDS011;56357;52.304;4.870;2023-03-23T08:18:47;7.95;;;1.27;;
69244;SDS011;56357;52.304;4.870;2023-03-23T08:21:14;6.80;;;0.90;;
69244;SDS011;56357;52.304;4.870;2023-03-23T08:23:40;5.17;;;1.07;;
69244;SDS011;56357;52.304;4.870;2023-03-23T08:26:07;6.88;;;1.30;;
69244;SDS011;56357;52.304;4.870;2023-03-23T08:28:34;8.57;;;1.20;;
69244;SDS011;56357;52.304;4.870;2023-03-23T08:31:09;4.80;;;0.90;;
69244;SDS011;56357;52.304;4.870;2023-03-23T08:33:38;7.78;;;1.30;;
69244;SDS011;56357;52.304;4.870;2023-03-23T08:36:06;5.83;;;1.17;;
69244;SDS011;56357;52.304;4.870;2023-03-23T08:38:32;6.85;;;1.00;;
69244;SDS011;56357;52.304;4.870;2023-03-23T08:41:00;6.10;;;0.95;;
69244;SDS011;56357;52.304;4.870;2023-03-23T08:43:29;5.20;;;0.60;;
69244;SDS011;56357;52.304;4.870;2023-03-23T08:45:57;10.45;;;1.10;;
69244;SDS011;56357;52.304;4.870;2023-03-23T08:48:24;8.07;;;0.70;;
69244;SDS011;56357;52.304;4.870;2023-03-23T08:50:51;5.97;;;1.27;;
69244;SDS011;56357;52.304;4.870;2023-03-23T08:53:18;8.57;;;1.33;;
69244;SDS011;56357;52.304;4.870;2023-03-23T08:55:47;7.00;;;1.00;;
69244;SDS011;56357;52.304;4.870;2023-03-23T08:58:14;10.05;;;1.35;;
69244;SDS011;56357;52.304;4.870;2023-03-23T09:00:40;7.93;;;0.90;;
69244;SDS011;56357;52.304;4.870;2023-03-23T09:03:07;6.40;;;1.08;;
69244;SDS011;56357;52.304;4.870;2023-03-23T09:05:33;8.35;;;0.90;;
69244;SDS011;56357;52.304;4.870;2023-03-23T09:08:00;6.80;;;1.00;;
69244;SDS011;56357;52.304;4.870;2023-03-23T09:10:28;10.27;;;1.27;;
69244;SDS011;56357;52.304;4.870;2023-03-23T09:12:56;8.27;;;1.10;;
69244;SDS011;56357;52.304;4.870;2023-03-23T09:15:22;6.88;;;1.00;;
69244;SDS011;56357;52.304;4.870;2023-03-23T09:17:50;7.65;;;1.00;;
69244;SDS011;56357;52.304;4.870;2023-03-23T09:20:19;4.22;;;0.80;;
69244;SDS011;56357;52.304;4.870;2023-03-23T09:22:50;7.32;;;0.80;;
69244;SDS011;56357;52.304;4.870;2023-03-23T09:25:20;7.27;;;1.30;;
69244;SDS011;56357;52.304;4.870;2023-03-23T09:27:51;6.50;;;1.02;;
69244;SDS011;56357;52.304;4.870;2023-03-23T09:30:26;5.50;;;1.02;;
69244;SDS011;56357;52.304;4.870;2023-03-23T09:32:56;6.50;;;1.10;;
69244;SDS011;56357;52.304;4.870;2023-03-23T09:35:26;6.18;;;1.02;;
69244;SDS011;56357;52.304;4.870;2023-03-23T09:37:53;9.43;;;0.83;;
69244;SDS011;56357;52.304;4.870;2023-03-23T09:43:02;5.18;;;0.90;;
69244;SDS011;56357;52.304;4.870;2023-03-23T09:51:13;6.37;;;0.83;;
69244;SDS011;56357;52.304;4.870;2023-03-23T09:53:44;5.32;;;0.98;;
69244;SDS011;56357;52.304;4.870;2023-03-23T09:56:16;7.13;;;1.60;;
69244;SDS011;56357;52.304;4.870;2023-03-23T09:58:45;7.75;;;1.42;;
69244;SDS011;56357;52.304;4.870;2023-03-23T10:01:19;4.95;;;0.80;;
69244;SDS011;56357;52.304;4.870;2023-03-23T10:03:51;12.07;;;1.20;;
69244;SDS011;56357;52.304;4.870;2023-03-23T10:06:25;7.10;;;1.20;;
69244;SDS011;56357;52.304;4.870;2023-03-23T10:08:52;6.70;;;0.90;;
69244;SDS011;56357;52.304;4.870;2023-03-23T10:17:33;5.37;;;0.80;;
69244;SDS011;56357;52.304;4.870;2023-03-23T10:19:53;4.68;;;0.80;;
69244;SDS011;56357;52.304;4.870;2023-03-23T10:22:33;6.45;;;0.80;;
69244;SDS011;56357;52.304;4.870;2023-03-23T10:30:40;7.27;;;1.20;;
69244;SDS011;56357;52.304;4.870;2023-03-23T10:35:55;4.82;;;0.63;;
69244;SDS011;56357;52.304;4.870;2023-03-23T10:38:26;5.00;;;0.88;;
69244;SDS011;56357;52.304;4.870;2023-03-23T10:41:05;6.22;;;1.00;;
69244;SDS011;56357;52.304;4.870;2023-03-23T10:43:36;6.03;;;1.30;;
69244;SDS011;56357;52.304;4.870;2023-03-23T10:46:21;6.57;;;1.08;;
69244;SDS011;56357;52.304;4.870;2023-03-23T10:49:06;8.50;;;1.10;;
69244;SDS011;56357;52.304;4.870;2023-03-23T10:51:42;8.48;;;0.90;;
69244;SDS011;56357;52.304;4.870;2023-03-23T10:54:11;9.05;;;1.50;;
69244;SDS011;56357;52.304;4.870;2023-03-23T10:56:41;8.37;;;1.00;;
69244;SDS011;56357;52.304;4.870;2023-03-23T10:59:20;5.07;;;0.77;;
69244;SDS011;56357;52.304;4.870;2023-03-23T11:01:55;6.03;;;0.80;;
69244;SDS011;56357;52.304;4.870;2023-03-23T11:04:24;8.48;;;1.10;;
69244;SDS011;56357;52.304;4.870;2023-03-23T11:06:53;9.93;;;1.30;;
69244;SDS011;56357;52.304;4.870;2023-03-23T11:09:35;8.33;;;1.20;;
69244;SDS011;56357;52.304;4.870;2023-03-23T11:12:17;7.90;;;1.13;;
69244;SDS011;56357;52.304;4.870;2023-03-23T11:14:45;7.10;;;0.90;;
69244;SDS011;56357;52.304;4.870;2023-03-23T11:17:24;8.65;;;1.13;;
69244;SDS011;56357;52.304;4.870;2023-03-23T11:19:53;7.18;;;1.00;;
69244;SDS011;56357;52.304;4.870;2023-03-23T11:22:24;8.13;;;1.00;;
69244;SDS011;56357;52.304;4.870;2023-03-23T11:24:54;6.10;;;0.93;;
69244;SDS011;56357;52.304;4.870;2023-03-23T11:27:23;6.10;;;1.20;;
69244;SDS011;56357;52.304;4.870;2023-03-23T11:29:55;8.48;;;1.00;;
69244;SDS011;56357;52.304;4.870;2023-03-23T11:32:35;8.50;;;1.33;;
69244;SDS011;56357;52.304;4.870;2023-03-23T11:35:06;6.97;;;1.20;;
69244;SDS011;56357;52.304;4.870;2023-03-23T11:37:51;10.98;;;1.33;;
69244;SDS011;56357;52.304;4.870;2023-03-23T11:40:21;9.82;;;1.05;;
69244;SDS011;56357;52.304;4.870;2023-03-23T11:45:20;7.93;;;1.25;;
69244;SDS011;56357;52.304;4.870;2023-03-23T11:50:49;7.03;;;1.58;;
69244;SDS011;56357;52.304;4.870;2023-03-23T11:53:24;7.75;;;1.48;;
69244;SDS011;56357;52.304;4.870;2023-03-23T11:55:53;9.63;;;1.20;;
69244;SDS011;56357;52.304;4.870;2023-03-23T11:58:27;9.70;;;1.65;;
69244;SDS011;56357;52.304;4.870;2023-03-23T12:01:11;6.67;;;0.97;;
69244;SDS011;56357;52.304;4.870;2023-03-23T12:09:08;5.35;;;0.80;;
69244;SDS011;56357;52.304;4.870;2023-03-23T12:26:38;7.93;;;1.15;;
69244;SDS011;56357;52.304;4.870;2023-03-23T12:29:16;5.73;;;0.97;;
69244;SDS011;56357;52.304;4.870;2023-03-23T12:31:57;9.35;;;1.30;;
69244;SDS011;56357;52.304;4.870;2023-03-23T12:37:28;10.40;;;1.08;;
69244;SDS011;56357;52.304;4.870;2023-03-23T12:48:17;6.47;;;0.95;;
69244;SDS011;56357;52.304;4.870;2023-03-23T12:56:31;5.10;;;0.80;;
69244;SDS011;56357;52.304;4.870;2023-03-23T12:59:06;9.07;;;1.25;;
69244;SDS011;56357;52.304;4.870;2023-03-23T13:01:54;8.90;;;1.10;;
69244;SDS011;56357;52.304;4.870;2023-03-23T13:04:29;5.95;;;1.10;;
69244;SDS011;56357;52.304;4.870;2023-03-23T13:07:02;7.85;;;1.63;;
69244;SDS011;56357;52.304;4.870;2023-03-23T13:09:50;6.60;;;0.97;;
69244;SDS011;56357;52.304;4.870;2023-03-23T13:12:16;10.35;;;1.55;;
69244;SDS011;56357;52.304;4.870;2023-03-23T13:14:50;8.48;;;1.15;;
69244;SDS011;56357;52.304;4.870;2023-03-23T13:22:47;7.90;;;1.30;;
69244;SDS011;56357;52.304;4.870;2023-03-23T13:25:29;7.50;;;1.40;;
69244;SDS011;56357;52.304;4.870;2023-03-23T13:28:12;9.02;;;1.23;;
69244;SDS011;56357;52.304;4.870;2023-03-23T13:31:11;8.45;;;1.30;;
69244;SDS011;56357;52.304;4.870;2023-03-23T13:33:44;6.13;;;1.17;;
69244;SDS011;56357;52.304;4.870;2023-03-23T13:36:27;5.67;;;1.13;;
69244;SDS011;56357;52.304;4.870;2023-03-23T13:38:56;8.32;;;1.45;;
69244;SDS011;56357;52.304;4.870;2023-03-23T13:41:25;6.97;;;1.30;;
69244;SDS011;56357;52.304;4.870;2023-03-23T13:43:52;5.55;;;1.30;;
69244;SDS011;56357;52.304;4.870;2023-03-23T13:46:31;6.22;;;1.02;;
69244;SDS011;56357;52.304;4.870;2023-03-23T13:49:04;5.67;;;0.97;;
69244;SDS011;56357;52.304;4.870;2023-03-23T13:54:37;7.60;;;1.10;;
69244;SDS011;56357;52.304;4.870;2023-03-23T14:00:08;6.57;;;1.10;;
69244;SDS011;56357;52.304;4.870;2023-03-23T14:02:39;7.07;;;1.00;;
69244;SDS011;56357;52.304;4.870;2023-03-23T14:07:55;8.45;;;1.27;;
69244;SDS011;56357;52.304;4.870;2023-03-23T14:13:17;6.75;;;1.30;;
69244;SDS011;56357;52.304;4.870;2023-03-23T14:16:13;7.20;;;0.87;;
69244;SDS011;56357;52.304;4.870;2023-03-23T14:19:00;11.35;;;1.35;;
69244;SDS011;56357;52.304;4.870;2023-03-23T14:24:27;7.97;;;1.02;;
69244;SDS011;56357;52.304;4.870;2023-03-23T14:27:01;5.25;;;0.93;;
69244;SDS011;56357;52.304;4.870;2023-03-23T14:29:32;6.10;;;1.10;;
69244;SDS011;56357;52.304;4.870;2023-03-23T14:31:58;6.43;;;1.13;;
69244;SDS011;56357;52.304;4.870;2023-03-23T14:34:26;6.28;;;1.05;;
69244;SDS011;56357;52.304;4.870;2023-03-23T14:36:55;10.02;;;1.58;;
69244;SDS011;56357;52.304;4.870;2023-03-23T14:39:25;7.45;;;1.20;;
69244;SDS011;56357;52.304;4.870;2023-03-23T14:41:54;5.40;;;0.87;;
69244;SDS011;56357;52.304;4.870;2023-03-23T14:44:24;7.32;;;1.00;;
69244;SDS011;56357;52.304;4.870;2023-03-23T14:46:54;7.30;;;1.15;;
69244;SDS011;56357;52.304;4.870;2023-03-23T14:49:30;7.90;;;1.13;;
69244;SDS011;56357;52.304;4.870;2023-03-23T14:52:03;5.82;;;1.58;;
69244;SDS011;56357;52.304;4.870;2023-03-23T14:54:34;6.83;;;0.87;;
69244;SDS011;56357;52.304;4.870;2023-03-23T14:57:10;5.90;;;1.30;;
69244;SDS011;56357;52.304;4.870;2023-03-23T14:59:40;7.15;;;1.50;;
69244;SDS011;56357;52.304;4.870;2023-03-23T15:02:14;6.82;;;1.40;;
69244;SDS011;56357;52.304;4.870;2023-03-23T15:04:47;6.43;;;1.23;;
69244;SDS011;56357;52.304;4.870;2023-03-23T15:07:15;6.90;;;1.20;;
69244;SDS011;56357;52.304;4.870;2023-03-23T15:09:43;9.02;;;1.45;;
69244;SDS011;56357;52.304;4.870;2023-03-23T15:12:25;8.13;;;1.13;;
69244;SDS011;56357;52.304;4.870;2023-03-23T15:14:56;7.90;;;1.50;;
69244;SDS011;56357;52.304;4.870;2023-03-23T15:17:28;7.05;;;1.40;;
69244;SDS011;56357;52.304;4.870;2023-03-23T15:19:57;9.20;;;1.37;;
69244;SDS011;56357;52.304;4.870;2023-03-23T15:22:28;6.28;;;1.10;;
69244;SDS011;56357;52.304;4.870;2023-03-23T15:25:09;8.55;;;1.40;;
69244;SDS011;56357;52.304;4.870;2023-03-23T15:27:41;8.20;;;1.67;;
69244;SDS011;56357;52.304;4.870;2023-03-23T15:32:40;6.47;;;1.03;;
69244;SDS011;56357;52.304;4.870;2023-03-23T15:35:13;7.22;;;1.27;;
69244;SDS011;56357;52.304;4.870;2023-03-23T15:37:44;8.05;;;1.17;;
69244;SDS011;56357;52.304;4.870;2023-03-23T15:40:18;8.98;;;1.17;;
69244;SDS011;56357;52.304;4.870;2023-03-23T15:42:46;7.65;;;1.35;;
69244;SDS011;56357;52.304;4.870;2023-03-23T15:50:14;9.65;;;1.55;;
69244;SDS011;56357;52.304;4.870;2023-03-23T15:52:53;7.72;;;1.52;;
69244;SDS011;56357;52.304;4.870;2023-03-23T15:55:21;10.02;;;1.55;;
69244;SDS011;56357;52.304;4.870;2023-03-23T15:57:56;11.10;;;1.63;;
69244;SDS011;56357;52.304;4.870;2023-03-23T16:00:24;14.05;;;2.10;;
69244;SDS011;56357;52.304;4.870;2023-03-23T16:02:55;14.48;;;1.67;;
69244;SDS011;56357;52.304;4.870;2023-03-23T16:05:24;17.48;;;3.10;;
69244;SDS011;56357;52.304;4.870;2023-03-23T16:07:52;10.55;;;2.00;;
69244;SDS011;56357;52.304;4.870;2023-03-23T16:10:20;11.33;;;2.00;;
69244;SDS011;56357;52.304;4.870;2023-03-23T16:12:48;10.48;;;1.63;;
69244;SDS011;56357;52.304;4.870;2023-03-23T16:15:15;14.30;;;2.03;;
69244;SDS011;56357;52.304;4.870;2023-03-23T16:17:42;12.05;;;2.15;;
69244;SDS011;56357;52.304;4.870;2023-03-23T16:20:16;22.58;;;2.10;;
69244;SDS011;56357;52.304;4.870;2023-03-23T16:22:44;10.43;;;2.10;;
69244;SDS011;56357;52.304;4.870;2023-03-23T16:25:12;14.48;;;2.38;;
69244;SDS011;56357;52.304;4.870;2023-03-23T16:27:39;8.32;;;1.27;;
69244;SDS011;56357;52.304;4.870;2023-03-23T16:30:14;16.05;;;2.00;;
69244;SDS011;56357;52.304;4.870;2023-03-23T16:32:41;12.88;;;2.22;;
69244;SDS011;56357;52.304;4.870;2023-03-23T16:35:07;12.47;;;2.13;;
69244;SDS011;56357;52.304;4.870;2023-03-23T16:37:34;10.15;;;1.35;;
69244;SDS011;56357;52.304;4.870;2023-03-23T16:40:02;14.98;;;1.60;;
69244;SDS011;56357;52.304;4.870;2023-03-23T16:42:29;10.65;;;1.30;;
69244;SDS011;56357;52.304;4.870;2023-03-23T16:44:56;16.45;;;1.77;;
69244;SDS011;56357;52.304;4.870;2023-03-23T16:47:22;11.80;;;1.33;;
69244;SDS011;56357;52.304;4.870;2023-03-23T16:49:49;11.00;;;1.50;;
69244;SDS011;56357;52.304;4.870;2023-03-23T16:52:17;13.48;;;2.25;;
69244;SDS011;56357;52.304;4.870;2023-03-23T16:54:43;15.07;;;2.25;;
69244;SDS011;56357;52.304;4.870;2023-03-23T16:57:10;12.55;;;1.55;;
69244;SDS011;56357;52.304;4.870;2023-03-23T16:59:37;16.37;;;2.43;;